首页
METAR-TAF:

METAR-TAF

机场 :

拉巴特, 摩洛哥

拉巴特-塞拉国际机场

纬度: 34-03N, 经度: 006-46W, 海拔: 84米

当前天气观测

该预报发布于20分钟前的22:00 UTC
风速7节,风向西转西南
温度 17°C
湿度 82%
气压 1017 hPa
能見度: 8000
散云层高于1300英尺
多云层高于1600英尺

METAR: GMME 252200Z 25007KT 8000 SCT013 BKN016 17/14 Q1017 NOSIG

时间: 23:20 (22:20 UTC)

预报

该预报发布于5小时和20分钟前的17:00 UTC
预报有效从25日的 18点(UTC)到 26日的 24点(UTC)
风速8节,风向西南
能見度: 8000
散云层高于1300英尺
散云层高于2000英尺
短暂存在
从 25日的 18点(UTC)到 25日的 24点(UTC)
风速14节,风向西
能見度: 4000
散云层高于1000英尺
多云层高于1500英尺
多云层高于7000英尺

TAF: GMME 251700Z 2518/2624 22008KT 8000 SCT013 SCT020 TEMPO 2518/2524 28014KT 4000 RA SCT010 BKN015 BKN070

超过4000个机场的气象观测和天气预报(METAR&TAF报告)。

可查询的气象台以黄色和红色小点在地图上表示。

将鼠标移到小点上方,可查看气象台名称。

然后点击查看天气观测和预报。

如需切换地图:点击带黑十字的绿色按钮放大地图;点击带横线的绿色按钮缩小地图;或者点击绿色箭头查看邻近地区的地图。


METAR-TAF: